createdAt,value
2023-05-10T00:00:25.017Z,0.400
2023-05-10T00:01:26.707Z,0.699
2023-05-10T00:02:24.259Z,0.899
2023-05-10T00:03:23.885Z,0.800
2023-05-10T00:04:23.954Z,0.699
2023-05-10T00:05:24.337Z,1.299
2023-05-10T00:06:24.264Z,1.200
2023-05-10T00:07:23.939Z,0.5
2023-05-10T00:08:23.781Z,0.899
2023-05-10T00:09:24.073Z,0.5
2023-05-10T00:11:24.555Z,1.299
2023-05-10T00:12:24.343Z,1.100
2023-05-10T00:13:24.267Z,0.5
2023-05-10T00:14:24.213Z,1
2023-05-10T00:16:24.020Z,0.800
2023-05-10T00:17:24.286Z,1.100
2023-05-10T00:18:24.183Z,0.5
2023-05-10T00:19:24.358Z,0.400
2023-05-10T00:20:23.954Z,1
2023-05-10T00:21:24.049Z,1.100
2023-05-10T00:22:24.203Z,0.699
2023-05-10T00:24:23.758Z,0.5
2023-05-10T00:25:24.345Z,0.300
2023-05-10T00:26:24.229Z,0.699
2023-05-10T00:27:24.021Z,0.800
2023-05-10T00:28:24.296Z,0.699
2023-05-10T00:29:24.178Z,0.400
2023-05-10T00:30:24.121Z,1.299
2023-05-10T00:31:37.927Z,2.799
2023-05-10T00:32:24.070Z,0.800
2023-05-10T00:33:24.169Z,0.5
2023-05-10T00:34:24.289Z,1
2023-05-10T00:35:24.115Z,0.699
2023-05-10T00:36:24.139Z,1.399
2023-05-10T00:37:23.932Z,0.800
2023-05-10T00:38:24.032Z,1
2023-05-10T00:39:24.208Z,0.899
2023-05-10T00:40:24.292Z,0.600
2023-05-10T00:41:23.923Z,0.5
2023-05-10T00:43:24.016Z,2
2023-05-10T00:44:24.018Z,1.799
2023-05-10T00:45:24.325Z,0.899
2023-05-10T00:46:24.470Z,0.699
2023-05-10T00:47:24.652Z,1.100
2023-05-10T00:48:24.560Z,0.699
2023-05-10T00:49:24.454Z,0.600
2023-05-10T00:50:24.336Z,1.100
2023-05-10T00:51:24.603Z,2
2023-05-10T00:52:23.780Z,1.600
2023-05-10T00:53:23.967Z,0.899
2023-05-10T00:54:24.076Z,1.600
2023-05-10T00:55:24.175Z,0.899
2023-05-10T00:56:24.258Z,1.600
2023-05-10T00:57:46.207Z,1.5
2023-05-10T00:58:24.083Z,1.299
2023-05-10T00:59:24.144Z,1.399
2023-05-10T01:00:25.164Z,1.100
2023-05-10T01:01:24.186Z,0.699
2023-05-10T01:02:24.170Z,1.399
2023-05-10T01:03:24.434Z,2.200
2023-05-10T01:04:24.549Z,1.600
2023-05-10T01:05:24.776Z,0.800
2023-05-10T01:06:23.924Z,1.100
2023-05-10T01:07:24.223Z,1.799
2023-05-10T01:08:24.205Z,1.100
2023-05-10T01:09:24.020Z,1
2023-05-10T01:11:23.953Z,0.800
2023-05-10T01:12:24.227Z,1.399
2023-05-10T01:13:24.170Z,1.700
2023-05-10T01:14:24.111Z,1.799
2023-05-10T01:15:24.061Z,2.599
2023-05-10T01:16:23.969Z,1.700
2023-05-10T01:17:24.178Z,0.600
2023-05-10T01:18:24.400Z,0.800
2023-05-10T01:19:24.009Z,0.899
2023-05-10T01:20:24.326Z,1.5
2023-05-10T01:21:24.067Z,1.399
2023-05-10T01:22:23.963Z,1.100
2023-05-10T01:24:24.467Z,1.200
2023-05-10T01:25:23.908Z,0.699
2023-05-10T01:26:24.120Z,0.899
2023-05-10T01:27:24.238Z,0.699
2023-05-10T01:28:23.891Z,1.399
2023-05-10T01:29:23.791Z,0.699
2023-05-10T01:30:24.494Z,1
2023-05-10T01:31:23.935Z,1.700
2023-05-10T01:32:24.147Z,1.100
2023-05-10T01:33:24.096Z,0.699
2023-05-10T01:35:24.674Z,0.899
2023-05-10T01:36:24.241Z,1.299
2023-05-10T01:38:24.029Z,2.200
2023-05-10T01:39:23.941Z,1.200
2023-05-10T01:40:24.229Z,1.100
2023-05-10T01:41:24.185Z,0.800
2023-05-10T01:42:24.009Z,1.100
2023-05-10T01:43:24.086Z,0.800
2023-05-10T01:44:24.138Z,1.299
2023-05-10T01:45:24.548Z,2
2023-05-10T01:46:24.358Z,1.100
2023-05-10T01:47:24.735Z,1.200
2023-05-10T01:49:24.666Z,0.800
2023-05-10T01:50:24.307Z,1.700
2023-05-10T01:51:24.360Z,0.800
2023-05-10T01:52:24.455Z,1.5
2023-05-10T01:53:23.918Z,1
2023-05-10T01:55:23.942Z,1.799
2023-05-10T01:56:23.917Z,1.399
2023-05-10T01:57:24.126Z,0.899
2023-05-10T01:58:24.226Z,1
2023-05-10T01:59:24.371Z,1.600
2023-05-10T02:00:25.355Z,0.899
2023-05-10T02:01:24.235Z,1
2023-05-10T02:02:24.605Z,0.800
2023-05-10T02:03:23.951Z,1.299
2023-05-10T02:04:23.911Z,2
2023-05-10T02:05:23.991Z,1.899
2023-05-10T02:06:24.194Z,0.699
2023-05-10T02:07:24.067Z,1.299
2023-05-10T02:08:24.192Z,1
2023-05-10T02:09:23.913Z,1.299
2023-05-10T02:10:23.966Z,0.5
2023-05-10T02:11:23.836Z,1.299
2023-05-10T02:12:24.212Z,1.5
2023-05-10T02:13:24.363Z,1.299
2023-05-10T02:14:24.530Z,1.200
2023-05-10T02:16:24.621Z,1
2023-05-10T02:17:23.857Z,2.200
2023-05-10T02:18:24.133Z,1.700
2023-05-10T02:19:24.178Z,2.400
2023-05-10T02:20:25.016Z,1.399
2023-05-10T02:21:24.500Z,2.299
2023-05-10T02:22:24.240Z,1.799
2023-05-10T02:23:24.261Z,2.400
2023-05-10T02:24:24.422Z,2.599
2023-05-10T02:25:24.828Z,3.200
2023-05-10T02:26:24.193Z,2.900
2023-05-10T02:27:24.118Z,3
2023-05-10T02:28:24.212Z,3.400
2023-05-10T02:29:24.289Z,2.700
2023-05-10T02:30:24.292Z,5.199
2023-05-10T02:31:24.439Z,3.200
2023-05-10T02:32:23.875Z,3.599
2023-05-10T02:33:23.779Z,3.900
2023-05-10T02:34:23.889Z,8
2023-05-10T02:35:24.153Z,3.799
2023-05-10T02:36:24.205Z,5.199
2023-05-10T02:37:24.160Z,4.5
2023-05-10T02:38:24.196Z,4.400
2023-05-10T02:39:24.341Z,4.699
2023-05-10T02:40:26.210Z,4
2023-05-10T02:41:24.082Z,4.099
2023-05-10T02:43:24.135Z,4.800
2023-05-10T02:44:24.053Z,4.5
2023-05-10T02:45:24.391Z,4.800
2023-05-10T02:46:24.270Z,4
2023-05-10T02:47:24.391Z,4.5
2023-05-10T02:48:24.508Z,4.400
2023-05-10T02:49:24.336Z,4
2023-05-10T02:50:24.691Z,4.199
2023-05-10T02:52:24.221Z,4.800
2023-05-10T02:53:24.201Z,5.199
2023-05-10T02:54:32.403Z,4.300
2023-05-10T02:55:24.353Z,4.800
2023-05-10T02:56:24.262Z,4.099
2023-05-10T02:57:24.256Z,4.400
2023-05-10T02:58:24.380Z,4
2023-05-10T02:59:24.510Z,4.900
2023-05-10T03:00:25.502Z,4.599
2023-05-10T03:01:23.848Z,4.900
2023-05-10T03:02:37.895Z,4.5
2023-05-10T03:04:24.460Z,4.599
2023-05-10T03:05:24.700Z,4.900
2023-05-10T03:06:23.630Z,4.699
2023-05-10T03:07:23.804Z,4.400
2023-05-10T03:08:23.986Z,5.199
2023-05-10T03:09:24.309Z,4.199
2023-05-10T03:10:24.129Z,4.599
2023-05-10T03:11:24.284Z,4.800
2023-05-10T03:12:24.399Z,4.900
2023-05-10T03:13:24.697Z,4.199
2023-05-10T03:14:23.934Z,4.5
2023-05-10T03:15:24.367Z,4.199
2023-05-10T03:16:24.424Z,4.300
2023-05-10T03:17:24.127Z,4.800
2023-05-10T03:18:23.840Z,4.699
2023-05-10T03:19:23.562Z,5.300
2023-05-10T03:20:24.552Z,4.099
2023-05-10T03:21:24.321Z,4.800
2023-05-10T03:22:24.191Z,4.599
2023-05-10T03:23:24.023Z,5.400
2023-05-10T03:24:24.165Z,5.199
2023-05-10T03:25:24.066Z,4.5
2023-05-10T03:26:23.931Z,4.099
2023-05-10T03:27:23.806Z,3.799
2023-05-10T03:28:23.995Z,4.800
2023-05-10T03:29:24.214Z,4.400
2023-05-10T03:30:24.473Z,4.300
2023-05-10T03:32:24.346Z,4.099
2023-05-10T03:33:24.450Z,5.199
2023-05-10T03:34:24.365Z,4.699
2023-05-10T03:35:24.622Z,4.900
2023-05-10T03:37:23.977Z,5.099
2023-05-10T03:38:24.097Z,4.900
2023-05-10T03:39:23.859Z,4
2023-05-10T03:40:24.106Z,4.099
2023-05-10T03:41:24.258Z,4.199
2023-05-10T03:42:24.241Z,4.099
2023-05-10T03:43:24.231Z,4.5
2023-05-10T03:44:24.358Z,5.199
2023-05-10T03:45:24.350Z,4.699
2023-05-10T03:46:24.512Z,3.799
2023-05-10T03:47:24.349Z,4.800
2023-05-10T03:48:24.229Z,4.5
2023-05-10T03:49:24.219Z,4.099
2023-05-10T03:50:24.843Z,5.300
2023-05-10T03:51:24.355Z,3.900
2023-05-10T03:52:24.680Z,4.800
2023-05-10T03:53:24.323Z,4
2023-05-10T03:54:24.381Z,3.599
2023-05-10T03:55:24.540Z,4.199
2023-05-10T03:56:24.537Z,4.099
2023-05-10T03:57:24.122Z,4.5
2023-05-10T03:58:24.758Z,4.099
2023-05-10T03:59:24.099Z,4.300
2023-05-10T04:00:25.613Z,4
2023-05-10T04:01:23.801Z,4.900
2023-05-10T04:02:24.155Z,4.099
2023-05-10T04:03:24.819Z,4.900
2023-05-10T04:04:24.295Z,4.400
2023-05-10T04:05:24.297Z,3.799
2023-05-10T04:06:24.590Z,4.599
2023-05-10T04:07:24.180Z,3.900
2023-05-10T04:08:24.530Z,3.700
2023-05-10T04:09:24.155Z,4.099
2023-05-10T04:10:24.808Z,4.199
2023-05-10T04:11:24.185Z,3.700
2023-05-10T04:12:24.375Z,4.199
2023-05-10T04:13:24.584Z,3.900
2023-05-10T04:14:23.958Z,4.599
2023-05-10T04:15:24.386Z,3.599
2023-05-10T04:16:24.562Z,4
2023-05-10T04:17:24.434Z,3.799
2023-05-10T04:18:24.067Z,4.099
2023-05-10T04:19:24.163Z,4.400
2023-05-10T04:20:24.354Z,3.700
2023-05-10T04:21:24.122Z,3.5
2023-05-10T04:22:24.270Z,4.099
2023-05-10T04:23:24.507Z,3.900
2023-05-10T04:24:24.422Z,3.700
2023-05-10T04:25:24.598Z,5
2023-05-10T04:26:23.814Z,3.700
2023-05-10T04:27:23.841Z,2.799
2023-05-10T04:28:23.930Z,4
2023-05-10T04:29:24.177Z,3.5
2023-05-10T04:30:24.676Z,3.400
2023-05-10T04:31:24.042Z,3.599
2023-05-10T04:33:24.484Z,3.5
2023-05-10T04:34:24.490Z,2.799
2023-05-10T04:35:24.786Z,3.799
2023-05-10T04:36:24.215Z,3.700
2023-05-10T04:37:24.767Z,4.199
2023-05-10T04:38:24.420Z,3.299
2023-05-10T04:39:24.291Z,4.099
2023-05-10T04:40:24.477Z,4
2023-05-10T04:41:24.465Z,4.099
2023-05-10T04:42:24.504Z,3.700
2023-05-10T04:43:24.336Z,4
2023-05-10T04:44:24.739Z,4.199
2023-05-10T04:45:24.733Z,4.699
2023-05-10T04:47:24.137Z,4.400
2023-05-10T04:48:24.224Z,4
2023-05-10T04:49:24.907Z,4.599
2023-05-10T04:52:23.977Z,4.900
2023-05-10T04:53:24.639Z,5.199
2023-05-10T04:54:24.576Z,4.5
2023-05-10T04:56:24.414Z,4.599
2023-05-10T04:57:24.867Z,5.900
2023-05-10T04:58:24.567Z,5.400
2023-05-10T04:59:24.723Z,5
2023-05-10T05:00:25.473Z,4.800
2023-05-10T05:01:24.085Z,5.300
2023-05-10T05:02:24.902Z,5.199
2023-05-10T05:03:24.573Z,6.5
2023-05-10T05:04:24.239Z,5.5
2023-05-10T05:05:24.691Z,5.900
2023-05-10T05:06:24.236Z,4.800
2023-05-10T05:07:24.550Z,5.5
2023-05-10T05:08:24.216Z,5.800
2023-05-10T05:09:29.664Z,5.099
2023-05-10T05:10:24.356Z,5.199
2023-05-10T05:11:29.781Z,5.599
2023-05-10T05:13:24.327Z,5.800
2023-05-10T05:14:24.711Z,6.099
2023-05-10T05:15:32.633Z,5.800
2023-05-10T05:16:25.052Z,5.900
2023-05-10T05:17:24.780Z,5.199
2023-05-10T05:18:25.087Z,6.400
2023-05-10T05:19:32.731Z,5
2023-05-10T05:20:24.873Z,5.800
2023-05-10T05:21:24.528Z,5.400
2023-05-10T05:22:24.177Z,6.300
2023-05-10T05:23:38.380Z,5.900
2023-05-10T05:24:24.013Z,7.800
2023-05-10T05:25:24.218Z,6.5
2023-05-10T05:26:24.594Z,6.300
2023-05-10T05:27:23.945Z,6.099
2023-05-10T05:28:24.350Z,7.5
2023-05-10T05:29:24.754Z,6.699
2023-05-10T05:30:24.433Z,7.599
2023-05-10T05:31:24.119Z,6.099
2023-05-10T05:32:24.641Z,7.199
2023-05-10T05:33:24.156Z,7.300
2023-05-10T05:34:24.790Z,6.699
2023-05-10T05:35:24.251Z,6.900
2023-05-10T05:36:24.628Z,7.099
2023-05-10T05:37:24.201Z,6.099
2023-05-10T05:38:24.646Z,7.099
2023-05-10T05:39:24.167Z,6.199
2023-05-10T05:40:24.805Z,6
2023-05-10T05:41:23.976Z,5.5
2023-05-10T05:42:24.446Z,6.800
2023-05-10T05:44:24.362Z,5.800
2023-05-10T05:45:24.592Z,5.599
2023-05-10T05:46:24.441Z,5.400
2023-05-10T05:47:24.207Z,5.900
2023-05-10T05:48:24.780Z,6.199
2023-05-10T05:49:46.693Z,6
2023-05-10T05:50:24.601Z,5.5
2023-05-10T05:51:24.392Z,5.800
2023-05-10T05:52:25.125Z,6.300
2023-05-10T05:53:25.179Z,4.900
2023-05-10T05:54:24.382Z,5.699
2023-05-10T05:55:46.601Z,6.400
2023-05-10T05:56:25.054Z,5.199
2023-05-10T05:57:24.559Z,5.599
2023-05-10T05:58:24.398Z,4.800
2023-05-10T05:59:25.090Z,7.199
2023-05-10T06:00:25.984Z,4.900
2023-05-10T06:01:24.549Z,5.900
2023-05-10T06:02:24.401Z,6.699
2023-05-10T06:03:24.719Z,5
2023-05-10T06:04:24.317Z,5.5
2023-05-10T06:05:24.845Z,5.900
2023-05-10T06:06:24.465Z,5
2023-05-10T06:07:24.820Z,6.699
2023-05-10T06:08:24.470Z,6
2023-05-10T06:09:24.472Z,5.900
2023-05-10T06:10:24.437Z,5.099
2023-05-10T06:11:24.512Z,6
2023-05-10T06:12:25.033Z,5.800
2023-05-10T06:13:24.641Z,6
2023-05-10T06:14:24.299Z,6.400
2023-05-10T06:15:25.311Z,5.099
2023-05-10T06:16:25.010Z,4.900
2023-05-10T06:17:24.682Z,5.599
2023-05-10T06:18:24.887Z,4.699
2023-05-10T06:19:24.657Z,4.900
2023-05-10T06:21:24.501Z,4.599
2023-05-10T06:22:24.690Z,4.5
2023-05-10T06:23:24.498Z,5
2023-05-10T06:24:24.264Z,5.099
2023-05-10T06:25:24.478Z,3.900
2023-05-10T06:26:24.491Z,4.699
2023-05-10T06:27:24.412Z,4.800
2023-05-10T06:28:24.302Z,5.099
2023-05-10T06:29:24.468Z,4.599
2023-05-10T06:30:24.960Z,4.5
2023-05-10T06:31:24.568Z,4.900
2023-05-10T06:32:24.491Z,4.699
2023-05-10T06:33:24.755Z,5.099
2023-05-10T06:34:24.416Z,5.699
2023-05-10T06:35:24.304Z,4.900
2023-05-10T06:36:24.354Z,5.900
2023-05-10T06:37:24.797Z,5
2023-05-10T06:39:24.546Z,4.800
2023-05-10T06:40:24.335Z,4.5
2023-05-10T06:41:24.986Z,4.300
2023-05-10T06:42:24.567Z,4
2023-05-10T06:43:24.231Z,4.800
2023-05-10T06:44:24.745Z,4.400
2023-05-10T06:45:24.593Z,5.800
2023-05-10T06:46:24.425Z,4.199
2023-05-10T06:47:24.256Z,4.099
2023-05-10T06:48:24.266Z,4.300
2023-05-10T06:49:24.888Z,3.799
2023-05-10T06:50:24.863Z,4.900
2023-05-10T06:51:24.560Z,4.300
2023-05-10T06:52:24.543Z,3.900
2023-05-10T06:53:24.486Z,4.599
2023-05-10T06:54:24.160Z,4.5
2023-05-10T06:56:24.618Z,4.300
2023-05-10T06:57:31.606Z,4.099
2023-05-10T06:58:24.411Z,4.400
2023-05-10T07:00:26.032Z,4.599
2023-05-10T07:01:25.050Z,4
2023-05-10T07:02:25.115Z,3.200
2023-05-10T07:03:24.969Z,3.700
2023-05-10T07:05:24.718Z,4.400
2023-05-10T07:06:32.935Z,3.599
2023-05-10T07:07:24.432Z,4.5
2023-05-10T07:08:24.464Z,2.799
2023-05-10T07:09:24.393Z,3.400
2023-05-10T07:10:24.607Z,3.799
2023-05-10T07:11:24.366Z,3.700
2023-05-10T07:12:24.840Z,3.5
2023-05-10T07:13:24.592Z,3.200
2023-05-10T07:14:24.546Z,3.099
2023-05-10T07:15:24.937Z,3.599
2023-05-10T07:16:24.791Z,5
2023-05-10T07:17:24.808Z,3.400
2023-05-10T07:18:24.383Z,3.700
2023-05-10T07:19:24.297Z,3.900
2023-05-10T07:20:24.561Z,3.599
2023-05-10T07:21:24.432Z,3.200
2023-05-10T07:22:24.399Z,3
2023-05-10T07:24:24.541Z,2.5
2023-05-10T07:25:24.834Z,5.300
2023-05-10T07:26:24.693Z,5.599
2023-05-10T07:27:24.570Z,4.900
2023-05-10T07:28:24.295Z,4
2023-05-10T07:29:24.481Z,4.400
2023-05-10T07:30:29.774Z,3.900
2023-05-10T07:31:24.965Z,4.199
2023-05-10T07:32:24.853Z,4.5
2023-05-10T07:33:24.625Z,4.900
2023-05-10T07:34:29.406Z,4.400
2023-05-10T07:35:24.481Z,5.400
2023-05-10T07:36:24.402Z,5.099
2023-05-10T07:37:24.495Z,4.699
2023-05-10T07:38:24.842Z,4.900
2023-05-10T07:39:27.142Z,4.300
2023-05-10T07:40:24.836Z,4.800
2023-05-10T07:41:24.700Z,4.099
2023-05-10T07:42:32.523Z,3.799
2023-05-10T07:43:24.965Z,3.700
2023-05-10T07:44:24.516Z,3.900
2023-05-10T07:45:24.809Z,4.400
2023-05-10T07:46:24.749Z,2.900
2023-05-10T07:47:24.627Z,3.200
2023-05-10T07:49:24.763Z,2.599
2023-05-10T07:50:24.744Z,3.299
2023-05-10T07:51:25.023Z,3.799
2023-05-10T07:52:24.669Z,3.099
2023-05-10T07:53:24.964Z,3.299
2023-05-10T07:54:24.414Z,2.599
2023-05-10T07:55:25.026Z,3.400
2023-05-10T07:56:24.520Z,3.299
2023-05-10T07:57:25.287Z,2.900
2023-05-10T07:59:24.597Z,3
2023-05-10T08:01:24.878Z,3.299
2023-05-10T08:02:24.537Z,2.400
2023-05-10T08:03:24.637Z,3
2023-05-10T08:05:25.240Z,3.5
2023-05-10T08:06:24.324Z,3.799
2023-05-10T08:07:24.704Z,2.299
2023-05-10T08:08:24.515Z,2.5
2023-05-10T08:09:24.332Z,4.699
2023-05-10T08:10:24.420Z,1.399
2023-05-10T08:11:24.859Z,2
2023-05-10T08:12:24.781Z,1.5
2023-05-10T08:13:24.492Z,1.200
2023-05-10T08:14:24.274Z,2.200
2023-05-10T08:15:25.088Z,2.799
2023-05-10T08:16:24.857Z,2.400
2023-05-10T08:17:24.860Z,1.700
2023-05-10T08:18:24.574Z,1.5
2023-05-10T08:19:24.412Z,2.599
2023-05-10T08:20:46.540Z,3.299
2023-05-10T08:21:24.915Z,1.600
2023-05-10T08:22:24.638Z,2.099
2023-05-10T08:23:24.940Z,3.400
2023-05-10T08:24:24.530Z,1.299
2023-05-10T08:25:24.525Z,1.200
2023-05-10T08:27:24.953Z,1.700
2023-05-10T08:28:24.720Z,1.5
2023-05-10T08:29:25.387Z,1.100
2023-05-10T08:30:25.165Z,1.700
2023-05-10T08:31:24.926Z,1
2023-05-10T08:32:24.573Z,1.5
2023-05-10T08:33:24.555Z,1.200
2023-05-10T08:34:25.090Z,1.100
2023-05-10T08:35:24.398Z,2.400
2023-05-10T08:36:24.464Z,1.100
2023-05-10T08:37:24.247Z,1.799
2023-05-10T08:38:24.767Z,0.800
2023-05-10T08:39:30.432Z,1.200
2023-05-10T08:40:24.802Z,1.399
2023-05-10T08:41:24.669Z,2
2023-05-10T08:42:24.457Z,1.200
2023-05-10T08:44:24.895Z,0.699
2023-05-10T08:46:24.890Z,1.899
2023-05-10T08:47:24.334Z,0.400
2023-05-10T08:48:24.890Z,0.5
2023-05-10T08:49:24.840Z,1.399
2023-05-10T08:50:24.863Z,0.899
2023-05-10T08:51:24.935Z,0.600
2023-05-10T08:52:24.411Z,0.699
2023-05-10T08:53:24.191Z,0.899
2023-05-10T08:55:24.851Z,0.699
2023-05-10T08:56:24.743Z,1
2023-05-10T08:57:24.403Z,1.200
2023-05-10T08:58:24.349Z,0.600
2023-05-10T08:59:25.469Z,1.200
2023-05-10T09:00:25.784Z,1.100
2023-05-10T09:01:25.031Z,0.600
2023-05-10T09:02:25.044Z,0.899
2023-05-10T09:03:25.021Z,0.600
2023-05-10T09:04:24.716Z,2.400
2023-05-10T09:05:25.032Z,1.700
2023-05-10T09:06:24.772Z,0.899
2023-05-10T09:07:24.671Z,1.299
2023-05-10T09:08:24.505Z,0.699
2023-05-10T09:09:24.290Z,0.800
2023-05-10T09:11:30.375Z,1.299
2023-05-10T09:12:24.725Z,1.200
2023-05-10T09:13:24.923Z,0.800
2023-05-10T09:15:25.006Z,1.399
2023-05-10T09:16:25.077Z,0.800
2023-05-10T09:17:24.638Z,1.600
2023-05-10T09:18:27.297Z,1.200
2023-05-10T09:19:24.576Z,1.399
2023-05-10T09:20:24.739Z,0.699
2023-05-10T09:21:24.946Z,0.400
2023-05-10T09:22:24.957Z,1.299
2023-05-10T09:24:24.981Z,1.399
2023-05-10T09:25:24.681Z,3.099
2023-05-10T09:26:24.578Z,1.399
2023-05-10T09:27:24.330Z,1.700
2023-05-10T09:29:24.982Z,2.799
2023-05-10T09:30:25.217Z,0.600
2023-05-10T09:31:24.886Z,1.5
2023-05-10T09:33:25.052Z,0.600
2023-05-10T09:34:24.594Z,1.700
2023-05-10T09:35:25.868Z,1.100
2023-05-10T09:36:24.878Z,1.299
2023-05-10T09:37:24.806Z,1.899
2023-05-10T09:38:24.623Z,0.899
2023-05-10T09:39:24.814Z,2.799
2023-05-10T09:40:25.011Z,1
2023-05-10T09:41:24.921Z,3.200
2023-05-10T09:42:24.748Z,2.299
2023-05-10T09:43:24.550Z,1.700
2023-05-10T09:44:24.611Z,1.600
2023-05-10T09:45:24.712Z,2.700
2023-05-10T09:46:24.930Z,1.399
2023-05-10T09:47:24.959Z,0.800
2023-05-10T09:49:24.189Z,0.5
2023-05-10T09:50:25.014Z,1.399
2023-05-10T09:51:24.765Z,0.600
2023-05-10T09:52:24.464Z,2.299
2023-05-10T09:53:24.706Z,1.100
2023-05-10T09:54:24.990Z,1.5
2023-05-10T09:55:29.978Z,1.799
2023-05-10T09:56:24.700Z,1.100
2023-05-10T09:58:24.503Z,1.299
2023-05-10T09:59:29.796Z,1.5
2023-05-10T10:00:25.804Z,1.600
2023-05-10T10:01:29.745Z,1.399
2023-05-10T10:02:25.095Z,1.299
2023-05-10T10:03:24.814Z,0.800
2023-05-10T10:04:24.791Z,0.699
2023-05-10T10:05:25.334Z,1.200
2023-05-10T10:06:30.012Z,0.800
2023-05-10T10:07:32.597Z,0.899
2023-05-10T10:08:24.482Z,0.699
2023-05-10T10:09:24.411Z,1.600
2023-05-10T10:10:24.497Z,0.600
2023-05-10T10:12:24.357Z,1.100
2023-05-10T10:13:24.276Z,0.600
2023-05-10T10:14:24.856Z,0.5
2023-05-10T10:15:24.920Z,1.600
2023-05-10T10:16:24.840Z,1.100
2023-05-10T10:17:38.962Z,0.699
2023-05-10T10:18:24.577Z,0.899
2023-05-10T10:19:38.679Z,0.300
2023-05-10T10:20:24.532Z,0.400
2023-05-10T10:21:24.223Z,0.5
2023-05-10T10:22:24.755Z,0.200
2023-05-10T10:23:38.444Z,0.600
2023-05-10T10:24:24.587Z,1.399
2023-05-10T10:25:24.612Z,0.300
2023-05-10T10:26:24.323Z,0.5
2023-05-10T10:27:38.775Z,0.300
2023-05-10T10:28:25.967Z,0.400
2023-05-10T10:30:24.793Z,1.100
2023-05-10T10:31:43.752Z,0.800
2023-05-10T10:32:24.536Z,0.400
2023-05-10T10:33:44.818Z,0.699
2023-05-10T10:34:24.448Z,1.600
2023-05-10T10:35:25.299Z,0.100
2023-05-10T10:36:24.439Z,1
2023-05-10T10:37:24.975Z,0.400
2023-05-10T10:38:25.001Z,1.299
2023-05-10T10:39:25.364Z,0.600
2023-05-10T10:40:24.532Z,0.699
2023-05-10T10:41:24.807Z,0.300
2023-05-10T10:42:24.825Z,1.399
2023-05-10T10:43:24.642Z,0.400
2023-05-10T10:44:24.418Z,0.699
2023-05-10T10:45:24.626Z,0.800
2023-05-10T10:46:24.314Z,0.400
2023-05-10T10:48:25.087Z,0.5
2023-05-10T10:49:25.136Z,0.300
2023-05-10T10:50:25.221Z,0.800
2023-05-10T10:51:25.266Z,0.400
2023-05-10T10:52:24.277Z,1.5
2023-05-10T10:53:25.142Z,1.200
2023-05-10T10:54:24.140Z,1.299
2023-05-10T10:55:25.570Z,0.600
2023-05-10T10:56:24.684Z,0.800
2023-05-10T10:58:29.239Z,1
2023-05-10T11:00:30.015Z,0.699
2023-05-10T11:01:25.355Z,0.5
2023-05-10T11:02:24.753Z,0.600
2023-05-10T11:03:24.604Z,0.300
2023-05-10T11:04:24.801Z,0.899
2023-05-10T11:05:25.142Z,0.300
2023-05-10T11:06:25.295Z,0.899
2023-05-10T11:09:24.751Z,1.399
2023-05-10T11:10:24.785Z,1.200
2023-05-10T11:11:24.860Z,1.299
2023-05-10T11:12:24.476Z,0.699
2023-05-10T11:13:25.032Z,1.299
2023-05-10T11:14:24.939Z,0.400
2023-05-10T11:15:24.995Z,0.600
2023-05-10T11:16:24.928Z,1
2023-05-10T11:17:25.132Z,1.399
2023-05-10T11:18:24.010Z,1.299
2023-05-10T11:19:24.790Z,0.5
2023-05-10T11:20:24.760Z,5
2023-05-10T11:21:24.641Z,0.200
2023-05-10T11:22:24.177Z,1
2023-05-10T11:23:24.840Z,0.800
2023-05-10T11:24:25.107Z,0.899
2023-05-10T11:25:25.493Z,1
2023-05-10T11:26:24.859Z,1.200
2023-05-10T11:27:25.145Z,1.399
2023-05-10T11:28:25.196Z,0.5
2023-05-10T11:29:24.320Z,0.699
2023-05-10T11:30:24.682Z,1.5
2023-05-10T11:31:24.659Z,1.600
2023-05-10T11:32:24.814Z,1.200
2023-05-10T11:33:24.741Z,1.100
2023-05-10T11:34:24.334Z,2
2023-05-10T11:35:24.694Z,3.400
2023-05-10T11:36:24.678Z,1.5
2023-05-10T11:37:24.370Z,1.200
2023-05-10T11:38:24.522Z,0.400
2023-05-10T11:39:24.845Z,0.699
2023-05-10T11:40:24.717Z,0.899
2023-05-10T11:41:24.563Z,1.299
2023-05-10T11:42:24.739Z,1.600
2023-05-10T11:43:24.656Z,1
2023-05-10T11:44:24.654Z,1.399
2023-05-10T11:45:24.756Z,1
2023-05-10T11:46:24.738Z,0.699
2023-05-10T11:47:24.799Z,0.400
2023-05-10T11:48:24.785Z,1.899
2023-05-10T11:49:24.684Z,0.600
2023-05-10T11:50:24.995Z,1.299
2023-05-10T11:51:25.210Z,0.400
2023-05-10T11:52:24.741Z,0.899
2023-05-10T11:53:25.933Z,0.800
2023-05-10T11:54:25.236Z,0.5
2023-05-10T11:55:24.455Z,0.800
2023-05-10T11:57:25.130Z,0.600
2023-05-10T11:59:24.719Z,1.100
2023-05-10T12:00:25.485Z,0.899
2023-05-10T12:01:24.584Z,1.700
2023-05-10T12:02:24.516Z,1.799
2023-05-10T12:03:24.753Z,1.100
2023-05-10T12:04:24.810Z,1.700
2023-05-10T12:05:24.924Z,1.100
2023-05-10T12:06:24.398Z,2
2023-05-10T12:07:24.519Z,1.5
2023-05-10T12:08:24.359Z,5.699
2023-05-10T12:09:39.628Z,3
2023-05-10T12:10:24.615Z,2.299
2023-05-10T12:12:24.565Z,1.600
2023-05-10T12:13:24.382Z,1.399
2023-05-10T12:16:25.278Z,1.5
2023-05-10T12:17:24.544Z,1.200
2023-05-10T12:19:24.909Z,1.399
2023-05-10T12:20:25.565Z,1.600
2023-05-10T12:21:24.943Z,1
2023-05-10T12:22:24.788Z,0.600
2023-05-10T12:23:24.671Z,1.5
2023-05-10T12:24:24.561Z,0.899
2023-05-10T12:26:25.031Z,1
2023-05-10T12:27:24.950Z,1.399
2023-05-10T12:28:24.941Z,1.200
2023-05-10T12:29:24.912Z,0.800
2023-05-10T12:30:25.209Z,1.100
2023-05-10T12:31:24.534Z,1.700
2023-05-10T12:32:32.375Z,1.200
2023-05-10T12:33:24.389Z,2
2023-05-10T12:34:24.327Z,1.899
2023-05-10T12:35:24.523Z,1.399
2023-05-10T12:36:32.635Z,1.200
2023-05-10T12:37:24.481Z,1.399
2023-05-10T12:38:38.500Z,0.899
2023-05-10T12:39:24.357Z,1
2023-05-10T12:40:38.913Z,2
2023-05-10T12:41:24.975Z,0.800
2023-05-10T12:42:38.616Z,1.5
2023-05-10T12:43:24.507Z,2.799
2023-05-10T12:44:38.358Z,1.399
2023-05-10T12:45:24.908Z,0.800
2023-05-10T12:46:25.266Z,1.600
2023-05-10T12:47:24.820Z,0.800
2023-05-10T12:48:25.023Z,1.200
2023-05-10T12:49:25.025Z,1.899
2023-05-10T12:50:39.283Z,2.700
2023-05-10T12:51:25.305Z,0.699
2023-05-10T12:52:25.187Z,2.400
2023-05-10T12:53:25.407Z,1.5
2023-05-10T12:54:24.810Z,0.5
2023-05-10T12:55:24.915Z,0.699
2023-05-10T12:56:24.812Z,1.299
2023-05-10T12:57:24.874Z,1.200
2023-05-10T12:58:35.133Z,1.5
2023-05-10T12:59:24.711Z,0.800
2023-05-10T13:00:25.498Z,1.700
2023-05-10T13:01:24.687Z,1.299
2023-05-10T13:02:24.769Z,1.200
2023-05-10T13:03:24.836Z,1.100
2023-05-10T13:04:24.709Z,1.5
2023-05-10T13:05:24.982Z,1.299
2023-05-10T13:06:24.993Z,2.200
2023-05-10T13:07:24.499Z,2
2023-05-10T13:08:46.581Z,0.800
2023-05-10T13:09:24.540Z,1.100
2023-05-10T13:10:24.803Z,2
2023-05-10T13:11:25.018Z,1.799
2023-05-10T13:12:24.988Z,1.200
2023-05-10T13:13:24.933Z,1.600
2023-05-10T13:14:24.753Z,0.899
2023-05-10T13:15:24.715Z,1
2023-05-10T13:16:24.516Z,1.200
2023-05-10T13:17:24.498Z,0.600
2023-05-10T13:18:24.618Z,1.600
2023-05-10T13:19:24.508Z,1.700
2023-05-10T13:20:24.717Z,1.100
2023-05-10T13:21:24.709Z,1.299
2023-05-10T13:22:36.335Z,1.600
2023-05-10T13:23:24.555Z,1
2023-05-10T13:24:24.564Z,2.099
2023-05-10T13:25:24.561Z,1.700
2023-05-10T13:26:24.519Z,1
2023-05-10T13:27:24.963Z,3.099
2023-05-10T13:28:24.692Z,2.400
2023-05-10T13:29:24.586Z,2.099
2023-05-10T13:30:24.814Z,1.899
2023-05-10T13:31:24.687Z,1.299
2023-05-10T13:32:24.700Z,2.5
2023-05-10T13:33:24.992Z,1.200
2023-05-10T13:34:25.191Z,1.299
2023-05-10T13:35:24.554Z,0.899
2023-05-10T13:36:24.842Z,1.600
2023-05-10T13:37:24.738Z,0.800
2023-05-10T13:38:24.688Z,1.200
2023-05-10T13:39:24.751Z,0.899
2023-05-10T13:40:25.017Z,3.299
2023-05-10T13:41:24.978Z,1.299
2023-05-10T13:43:29.712Z,1.5
2023-05-10T13:44:24.598Z,1.200
2023-05-10T13:45:24.669Z,1.299
2023-05-10T13:46:24.684Z,1.799
2023-05-10T13:47:25.211Z,1.5
2023-05-10T13:48:24.792Z,1.399
2023-05-10T13:49:25.177Z,1.100
2023-05-10T13:50:24.854Z,1.799
2023-05-10T13:51:24.720Z,0.899
2023-05-10T13:52:24.315Z,2.099
2023-05-10T13:53:25.147Z,0.800
2023-05-10T13:54:25.144Z,1
2023-05-10T13:55:24.482Z,1.899
2023-05-10T13:56:24.424Z,1.100
2023-05-10T13:57:24.453Z,0.699
2023-05-10T13:58:24.605Z,0.800
2023-05-10T14:00:26.017Z,1
2023-05-10T14:01:25.246Z,1.399
2023-05-10T14:02:24.774Z,0.600
2023-05-10T14:03:24.847Z,1.5
2023-05-10T14:04:24.919Z,1.200
2023-05-10T14:05:26.225Z,1.299
2023-05-10T14:06:24.638Z,0.699
2023-05-10T14:07:24.840Z,1.899